Time;durP1;ratioP1;P1;durP2;ratioP2;P2;SDS_P1;SDS_P2;PMS_P1;PMS_P2;Temp;Humidity;BMP_temperature;BMP_pressure;BME280_temperature;BME280_humidity;BME280_pressure;Samples;Min_cycle;Max_cycle;Signal;HPM_P1;HPM_P2
2021/10/21 00:00:45;;;;;;;4.38;3.50;;;17.70;95.80;;;;;;4995371;28;20101;-79
2021/10/21 00:03:29;;;;;;;4.05;3.55;;;17.70;95.80;;;;;;5010236;28;20045;-78
2021/10/21 00:06:14;;;;;;;4.03;3.57;;;17.70;95.80;;;;;;4996179;28;20045;-79
2021/10/21 00:08:58;;;;;;;5.15;3.42;;;17.70;96.00;;;;;;5010497;28;20336;-79
2021/10/21 00:11:42;;;;;;;3.88;3.42;;;17.70;96.10;;;;;;5009078;28;20041;-79
2021/10/21 00:14:26;;;;;;;5.03;3.35;;;17.70;96.20;;;;;;5021646;28;20593;-80
2021/10/21 00:17:10;;;;;;;3.80;3.25;;;17.70;96.30;;;;;;5010412;28;20037;-79
2021/10/21 00:19:55;;;;;;;3.40;3.10;;;17.70;96.40;;;;;;5023966;28;20083;-78
2021/10/21 00:22:40;;;;;;;4.80;3.35;;;17.70;96.50;;;;;;5010449;28;20041;-79
2021/10/21 00:25:24;;;;;;;3.85;3.08;;;17.80;96.50;;;;;;4995213;28;20033;-78
2021/10/21 00:28:08;;;;;;;4.95;3.78;;;17.70;96.70;;;;;;5008577;28;20057;-78
2021/10/21 00:30:52;;;;;;;3.75;3.40;;;17.70;96.90;;;;;;5023276;28;20044;-79
2021/10/21 00:33:36;;;;;;;4.35;3.22;;;17.60;97.00;;;;;;5007888;28;20096;-79
2021/10/21 00:36:21;;;;;;;4.05;3.35;;;17.70;97.10;;;;;;4994457;28;20391;-79
2021/10/21 00:39:05;;;;;;;3.97;3.58;;;17.70;97.20;;;;;;4993304;28;20160;-80
2021/10/21 00:41:49;;;;;;;4.35;3.60;;;17.60;97.30;;;;;;5021645;28;20083;-78
2021/10/21 00:44:33;;;;;;;4.03;3.40;;;17.60;97.40;;;;;;4994662;28;20069;-78
2021/10/21 00:47:17;;;;;;;4.85;3.30;;;17.60;97.40;;;;;;5007439;28;20260;-78
2021/10/21 00:50:01;;;;;;;4.63;3.40;;;17.60;97.30;;;;;;5007277;28;20037;-79
2021/10/21 00:52:45;;;;;;;3.85;3.28;;;17.70;97.20;;;;;;5022156;28;20520;-80
2021/10/21 00:55:32;;;;;;;4.43;3.38;;;17.60;97.30;;;;;;5008597;28;20068;-76
2021/10/21 00:58:16;;;;;;;6.43;3.90;;;17.60;97.30;;;;;;5008701;28;20064;-74
2021/10/21 01:01:01;;;;;;;3.65;3.17;;;17.70;97.10;;;;;;4995475;28;20040;-79
2021/10/21 01:03:46;;;;;;;3.63;3.22;;;17.70;97.10;;;;;;5022862;28;20106;-79
2021/10/21 01:06:32;;;;;;;4.00;3.40;;;17.70;97.30;;;;;;4994516;28;20064;-78
2021/10/21 01:09:18;;;;;;;3.92;3.30;;;17.60;97.40;;;;;;5008546;28;20048;-79
2021/10/21 01:12:04;;;;;;;4.93;3.60;;;17.50;97.40;;;;;;5023877;28;20040;-78
2021/10/21 01:14:48;;;;;;;4.25;3.63;;;17.60;97.40;;;;;;5022885;28;20060;-75
2021/10/21 01:17:32;;;;;;;3.70;3.30;;;17.50;97.60;;;;;;5007277;28;20053;-76
2021/10/21 01:20:17;;;;;;;3.88;3.42;;;17.60;97.40;;;;;;5022123;28;20093;-76
2021/10/21 01:23:01;;;;;;;4.93;3.25;;;17.60;97.40;;;;;;5007858;28;20061;-79
2021/10/21 01:25:45;;;;;;;4.37;3.37;;;17.60;97.20;;;;;;4993396;28;20084;-77
2021/10/21 01:28:29;;;;;;;4.10;3.37;;;17.60;96.90;;;;;;5007086;28;20255;-79
2021/10/21 01:31:13;;;;;;;4.10;3.10;;;17.60;96.20;;;;;;5007356;28;20088;-79
2021/10/21 01:33:57;;;;;;;4.82;2.78;;;17.70;94.70;;;;;;5005759;28;20280;-75
2021/10/21 01:36:44;;;;;;;5.72;2.60;;;17.70;94.00;;;;;;5006816;28;20049;-75
2021/10/21 01:39:28;;;;;;;13.00;3.70;;;17.80;92.50;;;;;;5007640;28;20393;-74
2021/10/21 01:42:12;;;;;;;11.82;3.28;;;17.80;91.90;;;;;;5021860;28;20061;-76
2021/10/21 01:44:56;;;;;;;9.52;2.50;;;17.80;91.40;;;;;;5006009;28;20552;-75
2021/10/21 01:47:41;;;;;;;11.50;3.00;;;17.80;91.00;;;;;;5009278;28;20191;-76
2021/10/21 01:50:25;;;;;;;7.68;2.25;;;17.70;90.90;;;;;;5017063;28;20052;-75
2021/10/21 01:53:11;;;;;;;5.75;2.15;;;17.70;90.50;;;;;;5018081;28;20041;-77
2021/10/21 01:55:56;;;;;;;4.30;2.20;;;17.70;90.40;;;;;;5017386;28;20464;-77
2021/10/21 01:58:41;;;;;;;4.43;2.08;;;17.60;90.40;;;;;;5032218;28;20060;-76
2021/10/21 02:01:25;;;;;;;5.80;1.92;;;17.60;90.60;;;;;;5017445;28;20084;-77
2021/10/21 02:04:09;;;;;;;4.45;2.15;;;17.60;90.30;;;;;;5017087;28;20053;-76
2021/10/21 02:06:53;;;;;;;6.50;2.75;;;17.50;90.10;;;;;;5026708;28;20069;-76
2021/10/21 02:09:37;;;;;;;5.88;2.75;;;17.50;89.90;;;;;;5017975;28;20032;-76
2021/10/21 02:12:21;;;;;;;2.40;1.90;;;17.50;90.00;;;;;;5016663;28;20041;-76
2021/10/21 02:15:06;;;;;;;2.17;1.95;;;17.50;90.10;;;;;;5015631;28;20049;-76
2021/10/21 02:17:51;;;;;;;4.97;1.88;;;17.50;90.10;;;;;;5013090;28;20037;-78
2021/10/21 02:20:35;;;;;;;4.85;2.47;;;17.40;90.30;;;;;;5025463;28;20044;-78
2021/10/21 02:23:19;;;;;;;2.15;1.63;;;17.40;90.30;;;;;;5026693;28;20071;-79
2021/10/21 02:26:03;;;;;;;4.72;2.50;;;17.40;90.40;;;;;;5011731;28;20061;-77
2021/10/21 02:28:47;;;;;;;5.57;2.42;;;17.30;90.50;;;;;;5024735;28;20088;-76
2021/10/21 02:31:31;;;;;;;7.43;2.10;;;17.30;90.60;;;;;;5023737;28;20044;-77
2021/10/21 02:34:16;;;;;;;6.93;2.33;;;17.30;90.70;;;;;;5010855;28;20421;-77
2021/10/21 02:37:01;;;;;;;13.57;3.20;;;17.30;90.80;;;;;;5018047;28;20090;-77
2021/10/21 02:39:45;;;;;;;8.10;2.90;;;17.30;90.90;;;;;;4999874;28;20100;-77
2021/10/21 02:42:29;;;;;;;6.10;2.25;;;17.30;90.90;;;;;;5011126;28;20093;-78
2021/10/21 02:45:14;;;;;;;2.88;2.03;;;17.30;91.10;;;;;;4997116;28;20099;-78
2021/10/21 02:47:58;;;;;;;;;;;17.20;91.30;;;;;;5010513;28;20064;-77
2021/10/21 02:50:42;;;;;;;2.13;1.88;;;17.20;91.40;;;;;;5011111;28;19959;-78
2021/10/21 02:53:26;;;;;;;4.88;2.17;;;17.10;91.60;;;;;;5027247;28;20053;-78
2021/10/21 02:56:10;;;;;;;3.78;2.10;;;17.10;91.70;;;;;;5011847;28;20088;-77
2021/10/21 02:58:54;;;;;;;2.63;2.10;;;17.10;91.80;;;;;;5016417;28;20036;-78
2021/10/21 03:01:38;;;;;;;3.85;1.98;;;17.10;91.80;;;;;;4998427;28;20052;-78
2021/10/21 03:04:22;;;;;;;5.00;2.10;;;17.10;92.00;;;;;;5025737;28;20085;-79
2021/10/21 03:07:06;;;;;;;6.85;2.22;;;17.10;92.00;;;;;;5023234;28;20049;-77
2021/10/21 03:09:51;;;;;;;4.68;2.10;;;17.10;92.10;;;;;;5009936;28;20100;-78
2021/10/21 03:12:35;;;;;;;4.13;2.10;;;17.10;92.10;;;;;;5011938;28;20048;-78
2021/10/21 03:15:19;;;;;;;3.35;2.30;;;17.10;92.60;;;;;;5012327;28;20036;-78
2021/10/21 03:18:03;;;;;;;2.95;2.10;;;17.20;92.30;;;;;;5010214;28;20041;-78
2021/10/21 03:20:47;;;;;;;2.33;2.10;;;17.20;92.40;;;;;;5010650;28;20041;-78
2021/10/21 03:23:31;;;;;;;5.13;2.50;;;17.20;92.50;;;;;;5023157;28;20044;-77
2021/10/21 03:26:15;;;;;;;2.58;2.08;;;17.20;92.60;;;;;;5022842;28;20045;-79
2021/10/21 03:28:59;;;;;;;4.37;2.40;;;17.10;92.80;;;;;;4994838;28;20060;-78
2021/10/21 03:31:44;;;;;;;2.35;2.15;;;17.10;92.90;;;;;;5009950;28;20620;-78
2021/10/21 03:34:28;;;;;;;3.37;2.30;;;17.10;93.00;;;;;;4994663;28;20052;-78
2021/10/21 03:37:12;;;;;;;2.92;2.55;;;17.00;93.10;;;;;;4994962;28;20032;-78
2021/10/21 03:39:56;;;;;;;2.97;2.40;;;17.10;93.20;;;;;;5009095;28;20045;-79
2021/10/21 03:42:40;;;;;;;6.05;2.10;;;17.10;93.20;;;;;;4995244;28;20053;-80
2021/10/21 03:45:24;;;;;;;2.47;2.20;;;17.10;93.30;;;;;;5009195;28;20092;-79
2021/10/21 03:48:08;;;;;;;3.47;2.40;;;17.00;93.40;;;;;;5009236;28;20516;-78
2021/10/21 03:50:53;;;;;;;3.22;2.40;;;17.00;93.60;;;;;;4994401;28;20045;-79
2021/10/21 03:53:37;;;;;;;3.72;2.22;;;17.00;93.80;;;;;;5009586;28;20513;-79
2021/10/21 03:56:22;;;;;;;2.85;2.10;;;17.00;94.10;;;;;;5024360;28;20456;-78
2021/10/21 03:59:06;;;;;;;3.25;2.50;;;16.90;94.30;;;;;;5024141;28;20072;-78
2021/10/21 04:01:53;;;;;;;2.43;2.10;;;16.90;94.80;;;;;;4995086;28;20048;-79
2021/10/21 04:04:37;;;;;;;3.13;2.55;;;16.80;95.40;;;;;;5009267;28;20082;-78
2021/10/21 04:07:21;;;;;;;3.50;2.60;;;16.60;96.40;;;;;;5023813;28;20084;-78
2021/10/21 04:10:06;;;;;;;4.50;2.55;;;16.50;97.10;;;;;;5009329;28;20060;-78
2021/10/21 04:12:50;;;;;;;6.47;3.50;;;16.30;97.60;;;;;;5025601;28;20041;-79
2021/10/21 04:15:34;;;;;;;4.80;3.07;;;16.20;98.20;;;;;;5009746;28;20072;-79
2021/10/21 04:18:18;;;;;;;3.92;3.03;;;16.10;98.70;;;;;;5011958;28;20057;-79
2021/10/21 04:21:03;;;;;;;4.78;3.22;;;16.00;99.60;;;;;;4997465;28;20041;-79
2021/10/21 04:23:47;;;;;;;;;;;16.00;99.90;;;;;;5027510;28;20068;-79
2021/10/21 04:26:32;;;;;;;3.63;2.95;;;15.90;99.90;;;;;;5009054;28;20363;-78
2021/10/21 04:29:16;;;;;;;4.00;3.25;;;15.80;99.90;;;;;;5011414;28;20067;-80
2021/10/21 04:32:00;;;;;;;4.65;3.20;;;15.80;99.90;;;;;;4998560;28;20037;-79
2021/10/21 04:34:44;;;;;;;4.03;2.88;;;15.70;99.90;;;;;;5025045;28;20080;-79
2021/10/21 04:37:28;;;;;;;4.55;3.40;;;15.70;99.90;;;;;;5023897;28;20033;-78
2021/10/21 04:40:13;;;;;;;3.65;3.03;;;15.60;99.90;;;;;;5001551;28;20056;-77
2021/10/21 04:42:57;;;;;;;4.05;3.05;;;15.60;99.90;;;;;;5020747;28;20048;-79
2021/10/21 04:45:41;;;;;;;5.88;2.90;;;15.50;99.90;;;;;;5020597;28;20044;-78
2021/10/21 04:48:25;;;;;;;5.18;3.25;;;15.50;99.90;;;;;;4997549;28;20155;-81
2021/10/21 04:51:10;;;;;;;4.40;3.10;;;15.50;99.90;;;;;;5011268;28;20092;-79
2021/10/21 04:53:54;;;;;;;7.25;3.40;;;15.40;99.90;;;;;;5025517;28;20088;-79
2021/10/21 04:56:38;;;;;;;4.00;2.97;;;15.40;99.90;;;;;;5022841;28;20033;-80
2021/10/21 04:59:23;;;;;;;4.70;3.47;;;15.50;99.90;;;;;;5009734;28;20144;-79
2021/10/21 05:02:09;;;;;;;5.13;2.85;;;15.50;99.90;;;;;;5023708;28;20119;-78
2021/10/21 05:04:53;;;;;;;5.72;3.20;;;15.50;99.90;;;;;;4994728;28;20171;-79
2021/10/21 05:07:37;;;;;;;5.20;3.20;;;15.40;99.90;;;;;;5023577;28;20036;-80
2021/10/21 05:10:22;;;;;;;5.93;3.53;;;15.40;99.90;;;;;;5009638;28;20512;-83
2021/10/21 05:13:06;;;;;;;6.60;3.50;;;15.50;99.90;;;;;;4995956;28;20064;-82
2021/10/21 05:15:51;;;;;;;5.88;3.60;;;15.40;99.90;;;;;;5008826;28;20045;-82
2021/10/21 05:18:35;;;;;;;4.72;3.08;;;15.40;99.90;;;;;;5008289;28;20040;-82
2021/10/21 05:21:20;;;;;;;3.55;2.85;;;15.40;99.90;;;;;;5010363;28;20115;-83
2021/10/21 05:24:04;;;;;;;4.47;3.00;;;15.50;99.90;;;;;;4994445;28;20033;-82
2021/10/21 05:26:48;;;;;;;3.13;2.72;;;15.50;99.90;;;;;;5007806;28;20041;-79
2021/10/21 05:29:33;;;;;;;4.65;3.13;;;15.50;99.90;;;;;;4994516;28;20061;-79
2021/10/21 05:32:17;;;;;;;37.63;4.32;;;15.50;99.90;;;;;;4990780;28;20083;-79
2021/10/21 05:35:02;;;;;;;4.28;2.08;;;15.50;97.50;;;;;;5008729;28;20037;-77
2021/10/21 05:37:46;;;;;;;7.18;2.28;;;15.50;94.10;;;;;;5009280;28;20049;-77
2021/10/21 05:40:30;;;;;;;4.00;2.28;;;15.40;94.10;;;;;;5001435;28;20037;-78
2021/10/21 05:43:15;;;;;;;5.32;2.20;;;15.30;93.60;;;;;;5025849;28;20055;-77
2021/10/21 05:45:59;;;;;;;6.68;2.13;;;15.10;93.30;;;;;;5010012;28;20063;-77
2021/10/21 05:48:44;;;;;;;11.18;2.45;;;15.00;92.60;;;;;;5020758;28;20040;-77
2021/10/21 05:51:28;;;;;;;6.77;2.50;;;15.00;92.50;;;;;;5026462;28;20040;-76
2021/10/21 05:54:13;;;;;;;12.75;2.67;;;14.90;91.90;;;;;;5025942;28;20286;-77
2021/10/21 05:56:57;;;;;;;6.38;2.10;;;15.00;91.40;;;;;;5026771;28;20061;-77
2021/10/21 05:59:41;;;;;;;10.43;2.55;;;15.00;91.10;;;;;;5027710;28;20044;-77
2021/10/21 06:02:25;;;;;;;11.90;2.40;;;14.90;90.60;;;;;;5032002;28;20048;-77
2021/10/21 06:05:10;;;;;;;5.53;1.90;;;15.00;90.60;;;;;;5026842;28;20504;-77
2021/10/21 06:07:56;;;;;;;6.22;2.10;;;15.00;90.40;;;;;;5040134;28;20033;-77
2021/10/21 06:10:41;;;;;;;4.50;2.33;;;15.00;90.00;;;;;;5038505;28;20064;-76
2021/10/21 06:13:25;;;;;;;7.53;2.55;;;15.00;90.00;;;;;;5037421;28;20093;-76
2021/10/21 06:16:09;;;;;;;8.57;2.27;;;15.00;90.00;;;;;;5019090;28;20044;-77
2021/10/21 06:18:53;;;;;;;6.47;2.05;;;14.90;90.10;;;;;;5021591;28;20420;-79
2021/10/21 06:21:37;;;;;;;10.97;2.23;;;14.90;90.30;;;;;;5031300;28;20040;-80
2021/10/21 06:24:22;;;;;;;8.70;2.80;;;14.90;90.50;;;;;;5032501;28;20044;-78
2021/10/21 06:27:05;;;;;;;6.10;2.07;;;14.90;90.50;;;;;;4988464;28;20410;-79
2021/10/21 06:29:50;;;;;;;4.70;2.15;;;14.90;90.50;;;;;;5003421;28;20095;-80
2021/10/21 06:32:34;;;;;;;5.83;2.57;;;14.90;90.80;;;;;;5002844;28;20096;-80
2021/10/21 06:35:18;;;;;;;5.28;2.40;;;14.90;90.80;;;;;;5005032;28;20037;-78
2021/10/21 06:38:02;;;;;;;5.57;1.90;;;14.80;91.00;;;;;;5005492;28;20451;-78
2021/10/21 06:40:46;;;;;;;5.07;2.15;;;14.70;91.20;;;;;;5005718;28;20028;-79
2021/10/21 06:43:31;;;;;;;2.40;1.80;;;14.70;91.30;;;;;;5006360;28;20173;-78
2021/10/21 06:46:15;;;;;;;5.68;1.85;;;14.60;91.30;;;;;;5003385;28;20041;-79
2021/10/21 06:48:59;;;;;;;4.93;1.63;;;14.60;91.50;;;;;;5003941;28;20049;-80
2021/10/21 06:51:44;;;;;;;6.10;2.33;;;14.70;91.60;;;;;;5006405;28;20041;-81
2021/10/21 06:54:28;;;;;;;5.00;2.10;;;14.60;91.60;;;;;;4990155;28;20041;-79
2021/10/21 06:57:13;;;;;;;8.13;2.10;;;14.60;91.50;;;;;;5004766;28;20041;-79
2021/10/21 06:59:57;;;;;;;6.13;2.10;;;14.70;91.30;;;;;;5007863;28;20052;-82
2021/10/21 07:02:42;;;;;;;8.77;2.80;;;14.70;91.20;;;;;;5007235;28;20041;-80
2021/10/21 07:05:27;;;;;;;8.02;2.17;;;14.70;91.00;;;;;;5041222;28;20100;-80
2021/10/21 07:08:12;;;;;;;4.68;1.92;;;14.70;91.10;;;;;;5003944;28;20060;-81
2021/10/21 07:10:57;;;;;;;5.60;2.42;;;14.70;91.10;;;;;;5011160;28;20084;-82
2021/10/21 07:13:41;;;;;;;11.48;2.20;;;14.80;91.10;;;;;;5016229;28;20056;-79
2021/10/21 07:16:26;;;;;;;5.07;2.08;;;14.80;91.20;;;;;;5016606;28;20048;-81
2021/10/21 07:19:11;;;;;;;5.18;2.75;;;14.80;91.40;;;;;;5017114;28;20397;-80
2021/10/21 07:21:55;;;;;;;6.28;2.58;;;14.80;91.80;;;;;;4976880;28;20155;-81
2021/10/21 07:24:39;;;;;;;4.28;2.30;;;14.70;91.80;;;;;;4991783;28;20041;-81
2021/10/21 07:27:24;;;;;;;9.75;2.20;;;14.70;91.90;;;;;;4995577;28;20503;-81
2021/10/21 07:30:08;;;;;;;;;;;14.70;92.10;;;;;;5010901;28;20132;-81
2021/10/21 07:32:54;;;;;;;4.28;2.17;;;14.70;92.10;;;;;;5014884;28;19936;-81
2021/10/21 07:35:38;;;;;;;4.25;1.67;;;14.60;92.70;;;;;;5004056;28;20065;-80
2021/10/21 07:38:24;;;;;;;4.15;1.60;;;14.50;92.70;;;;;;5000400;28;20083;-82
2021/10/21 07:41:08;;;;;;;6.55;2.30;;;14.50;92.90;;;;;;5028987;28;20470;-76
2021/10/21 07:43:53;;;;;;;3.65;1.65;;;14.50;92.90;;;;;;5029939;28;20066;-80
2021/10/21 07:46:37;;;;;;;7.65;2.10;;;14.50;92.60;;;;;;5017377;28;20053;-77
2021/10/21 07:49:22;;;;;;;4.90;2.20;;;14.50;92.70;;;;;;5018382;28;20048;-81
2021/10/21 07:52:06;;;;;;;7.13;2.43;;;14.50;93.00;;;;;;5003953;28;20080;-79
2021/10/21 07:54:50;;;;;;;5.68;1.83;;;14.40;93.00;;;;;;5031001;28;20036;-77
2021/10/21 07:57:35;;;;;;;8.73;2.05;;;14.40;92.70;;;;;;5017357;28;20040;-76
2021/10/21 08:00:19;;;;;;;4.25;2.05;;;14.50;92.70;;;;;;5030866;28;20064;-80
2021/10/21 08:03:03;;;;;;;5.25;1.83;;;14.50;92.30;;;;;;5016009;28;20036;-79
2021/10/21 08:05:48;;;;;;;6.20;1.80;;;14.50;92.50;;;;;;5018141;28;20104;-79
2021/10/21 08:08:32;;;;;;;;;;;14.60;92.10;;;;;;5027302;28;20045;-79
2021/10/21 08:11:16;;;;;;;9.18;2.40;;;14.50;92.10;;;;;;5010339;28;19920;-79
2021/10/21 08:14:01;;;;;;;4.53;1.80;;;14.50;92.30;;;;;;5023031;28;20040;-78
2021/10/21 08:16:46;;;;;;;7.95;2.47;;;14.50;92.40;;;;;;5008158;28;20045;-75
2021/10/21 08:19:33;;;;;;;3.88;1.80;;;14.50;92.50;;;;;;5023138;28;20060;-79
2021/10/21 08:22:17;;;;;;;6.78;2.22;;;14.60;92.10;;;;;;5025119;28;20033;-76
2021/10/21 08:25:02;;;;;;;6.35;1.80;;;14.60;92.10;;;;;;5010540;28;20048;-76
2021/10/21 08:27:47;;;;;;;6.03;2.05;;;14.60;92.10;;;;;;5023352;28;20087;-76
2021/10/21 08:30:36;;;;;;;7.30;2.00;;;14.60;92.20;;;;;;5010582;28;20048;-77
2021/10/21 08:33:21;;;;;;;6.40;2.33;;;14.60;92.00;;;;;;4996998;28;20084;-75
2021/10/21 08:36:08;;;;;;;23.67;4.47;;;14.60;91.80;;;;;;5008716;28;20045;-79
2021/10/21 08:38:53;;;;;;;11.85;2.53;;;14.60;90.80;;;;;;5010549;28;20077;-78
2021/10/21 08:41:38;;;;;;;6.68;2.15;;;14.60;91.00;;;;;;5008887;28;20065;-78
2021/10/21 08:44:24;;;;;;;7.45;2.38;;;14.70;91.00;;;;;;4982596;28;20041;-78
2021/10/21 08:47:09;;;;;;;16.48;2.95;;;14.80;90.40;;;;;;5009111;28;20040;-76
2021/10/21 08:49:56;;;;;;;7.78;2.28;;;14.80;90.50;;;;;;5009541;28;20060;-79
2021/10/21 08:52:42;;;;;;;7.00;1.85;;;14.80;90.70;;;;;;5010502;28;20057;-80
2021/10/21 08:55:26;;;;;;;7.43;2.10;;;14.80;90.90;;;;;;5010220;28;20044;-79
2021/10/21 08:58:10;;;;;;;12.48;2.40;;;14.80;90.80;;;;;;5009416;28;20049;-79
2021/10/21 09:01:03;;;;;;;9.75;2.47;;;14.80;90.40;;;;;;5011457;28;20065;-79
2021/10/21 09:09:29;;;;;;;5.13;1.90;;;14.80;90.70;;;;;;5009112;28;20075;-77
2021/10/21 09:12:18;;;;;;;11.27;2.17;;;14.80;90.40;;;;;;5010903;28;20041;-76
2021/10/21 09:15:09;;;;;;;24.83;2.65;;;14.80;90.40;;;;;;5006736;28;20096;-78
2021/10/21 09:17:54;;;;;;;7.55;2.20;;;14.90;90.60;;;;;;5008791;28;20037;-79
2021/10/21 09:20:41;;;;;;;13.18;2.03;;;14.80;90.80;;;;;;5023425;28;20064;-78
2021/10/21 09:23:28;;;;;;;6.68;2.00;;;14.80;90.80;;;;;;5023776;28;20555;-77
2021/10/21 09:26:12;;;;;;;6.95;1.92;;;14.80;91.00;;;;;;5010774;28;20036;-75
2021/10/21 09:28:57;;;;;;;8.40;1.90;;;14.70;91.30;;;;;;5008826;28;20507;-79
2021/10/21 09:31:41;;;;;;;14.73;2.58;;;14.60;91.40;;;;;;5009873;28;20052;-78
2021/10/21 09:34:25;;;;;;;12.60;2.03;;;14.60;91.40;;;;;;5008356;28;20096;-77
2021/10/21 09:37:14;;;;;;;8.37;2.13;;;14.70;90.90;;;;;;5007994;28;20040;-78
2021/10/21 09:40:06;;;;;;;9.98;3.08;;;14.60;91.00;;;;;;5009610;28;20032;-77
2021/10/21 09:42:56;;;;;;;9.98;1.80;;;14.50;91.10;;;;;;5010927;28;20068;-80
2021/10/21 09:45:43;;;;;;;6.80;1.80;;;14.40;91.30;;;;;;5021410;28;20560;-77
2021/10/21 09:48:28;;;;;;;8.65;1.90;;;14.30;92.30;;;;;;5023128;28;20080;-79
2021/10/21 09:51:36;;;;;;;9.52;1.60;;;14.30;91.70;;;;;;5007452;28;20041;-78
2021/10/21 09:54:20;;;;;;;8.48;2.47;;;14.40;91.60;;;;;;5002103;28;20092;-77
2021/10/21 09:57:05;;;;;;;10.32;2.70;;;14.20;91.50;;;;;;5030750;28;20148;-76
2021/10/21 10:00:02;;;;;;;;;;;14.10;91.80;;;;;;5015575;28;20048;-77
2021/10/21 10:02:47;;;;;;;9.25;1.95;;;14.10;92.20;;;;;;4989271;28;20420;-76
2021/10/21 10:05:32;;;;;;;;;;;14.10;92.00;;;;;;4988180;28;20063;-77
2021/10/21 10:08:21;;;;;;;15.48;2.33;;;14.20;92.00;;;;;;4989055;28;19959;-76
2021/10/21 10:11:12;;;;;;;5.47;1.60;;;14.10;92.10;;;;;;5022760;28;20065;-76
2021/10/21 10:13:56;;;;;;;9.57;1.92;;;14.00;92.40;;;;;;5004442;28;20041;-76
2021/10/21 10:16:43;;;;;;;3.72;1.48;;;13.80;92.90;;;;;;5002816;28;20032;-77
2021/10/21 10:19:29;;;;;;;2.78;1.38;;;13.60;93.20;;;;;;4992881;28;20065;-76
2021/10/21 10:22:18;;;;;;;8.27;1.60;;;13.60;93.50;;;;;;5009890;28;20052;-76
2021/10/21 10:25:20;;;;;;;8.90;1.88;;;13.50;93.60;;;;;;5009061;28;20521;-76
2021/10/21 10:28:20;;;;;;;9.75;2.83;;;13.50;93.70;;;;;;5008826;28;20041;-76
2021/10/21 10:31:05;;;;;;;26.42;2.67;;;13.40;93.70;;;;;;5009521;28;20049;-77
2021/10/21 10:33:49;;;;;;;12.93;2.58;;;13.60;93.50;;;;;;4998856;28;20072;-74
2021/10/21 10:36:35;;;;;;;9.80;2.60;;;13.70;93.40;;;;;;5007567;28;20069;-76
2021/10/21 10:40:13;;;;;;;30.40;3.10;;;13.90;92.70;;;;;;4991493;28;20496;-76
2021/10/21 10:42:58;;;;;;;15.73;2.03;;;14.00;91.20;;;;;;4967492;28;20503;-76
2021/10/21 10:45:47;;;;;;;8.63;2.13;;;13.90;90.50;;;;;;4980568;28;20065;-77
2021/10/21 10:48:46;;;;;;;6.43;1.58;;;13.90;91.20;;;;;;5007661;28;20057;-76
2021/10/21 10:51:56;;;;;;;3.67;1.33;;;13.70;92.00;;;;;;4990221;28;20509;-77
2021/10/21 10:54:46;;;;;;;2.80;1.35;;;13.40;91.90;;;;;;4994815;28;20544;-76
2021/10/21 10:57:30;;;;;;;2.65;1.20;;;13.20;92.80;;;;;;4993900;28;20045;-78
2021/10/21 11:00:35;;;;;;;3.90;1.30;;;12.90;94.40;;;;;;5008118;28;20041;-77
2021/10/21 11:03:33;;;;;;;3.80;1.17;;;12.80;94.60;;;;;;5003762;28;20096;-77
2021/10/21 11:06:25;;;;;;;4.93;1.50;;;12.80;94.80;;;;;;5033817;28;20044;-75
2021/10/21 11:09:23;;;;;;;2.30;1.42;;;12.70;94.80;;;;;;5019131;28;20040;-76
2021/10/21 11:12:17;;;;;;;2.58;1.40;;;12.70;94.50;;;;;;5024239;28;20029;-75
2021/10/21 11:15:01;;;;;;;3.38;1.95;;;12.70;94.60;;;;;;4988174;28;20076;-75
2021/10/21 11:17:45;;;;;;;3.03;1.33;;;12.70;94.60;;;;;;5034945;28;20099;-75
2021/10/21 11:20:33;;;;;;;4.00;1.48;;;12.70;94.50;;;;;;5021943;28;20036;-75
2021/10/21 11:23:26;;;;;;;3.95;1.48;;;12.80;94.70;;;;;;5030197;28;20040;-75
2021/10/21 11:26:21;;;;;;;4.22;1.92;;;12.90;94.50;;;;;;5009990;28;20092;-76
2021/10/21 11:29:06;;;;;;;5.18;1.80;;;13.10;93.60;;;;;;5009676;28;20484;-79
2021/10/21 11:31:52;;;;;;;6.53;2.55;;;12.90;93.90;;;;;;5021865;28;20099;-78
2021/10/21 11:34:37;;;;;;;4.88;1.90;;;13.00;93.90;;;;;;4990855;28;20515;-78
2021/10/21 11:37:51;;;;;;;3.47;1.88;;;12.90;94.20;;;;;;5045685;28;20044;-78
2021/10/21 11:40:45;;;;;;;2.03;1.73;;;12.80;93.90;;;;;;5034280;28;20516;-78
2021/10/21 11:43:39;;;;;;;2.38;1.85;;;12.80;93.80;;;;;;4995563;28;20041;-79
2021/10/21 11:46:23;;;;;;;8.52;2.17;;;12.90;93.60;;;;;;5008602;28;20129;-80
2021/10/21 11:49:08;;;;;;;13.30;2.20;;;13.10;93.70;;;;;;5006798;28;20036;-80
2021/10/21 11:52:12;;;;;;;2.97;1.98;;;13.20;92.80;;;;;;4993403;28;20265;-81
2021/10/21 11:54:56;;;;;;;3.22;2.05;;;13.40;92.20;;;;;;5005283;28;20041;-79
2021/10/21 11:57:43;;;;;;;4.32;2.20;;;13.60;91.50;;;;;;4978736;28;20042;-81
2021/10/21 12:00:28;;;;;;;4.63;2.13;;;13.60;90.90;;;;;;5005987;28;20041;-80
2021/10/21 12:03:15;;;;;;;3.50;2.20;;;13.50;91.20;;;;;;5005887;28;20116;-78
2021/10/21 12:06:00;;;;;;;5.55;1.92;;;13.40;91.10;;;;;;5015040;28;20035;-81
2021/10/21 12:08:54;;;;;;;11.50;2.10;;;13.40;90.90;;;;;;5028177;28;20088;-76
2021/10/21 12:11:41;;;;;;;4.75;2.10;;;13.50;90.60;;;;;;5027764;28;20056;-79
2021/10/21 12:14:26;;;;;;;9.57;2.15;;;13.80;90.20;;;;;;5008678;28;20398;-79
2021/10/21 12:17:10;;;;;;;;;;;13.80;90.00;;;;;;5019734;28;20048;-78
2021/10/21 12:19:55;;;;;;;5.60;2.40;;;13.60;90.00;;;;;;5015065;28;19996;-80
2021/10/21 12:22:39;;;;;;;5.75;2.38;;;13.70;89.70;;;;;;5018060;28;20045;-78
2021/10/21 12:25:33;;;;;;;10.82;3.55;;;13.80;87.10;;;;;;5004329;28;20072;-80
2021/10/21 12:28:18;;;;;;;12.25;3.00;;;13.90;86.60;;;;;;5030928;28;20059;-79
2021/10/21 12:31:31;;;;;;;8.65;2.55;;;13.90;85.80;;;;;;5021337;28;20398;-81
2021/10/21 12:34:23;;;;;;;8.10;2.85;;;13.80;85.10;;;;;;5014522;28;20072;-80
2021/10/21 12:37:22;;;;;;;8.23;2.75;;;13.80;84.50;;;;;;4996956;28;20048;-78
2021/10/21 12:40:20;;;;;;;6.45;3.08;;;13.70;85.00;;;;;;5011659;28;20042;-80
2021/10/21 12:43:17;;;;;;;14.30;3.00;;;13.90;84.20;;;;;;5014414;28;20056;-79
2021/10/21 12:46:01;;;;;;;7.78;3.15;;;14.10;83.10;;;;;;5009497;28;20100;-79
2021/10/21 12:48:51;;;;;;;5.32;2.30;;;14.20;83.20;;;;;;4997241;28;20044;-80
2021/10/21 12:51:35;;;;;;;5.20;2.65;;;14.40;83.70;;;;;;5015375;28;20032;-76
2021/10/21 12:54:27;;;;;;;10.63;2.92;;;14.40;82.20;;;;;;5028123;28;20092;-76
2021/10/21 12:57:17;;;;;;;5.15;2.40;;;14.40;81.20;;;;;;5042001;28;20117;-77
2021/10/21 13:00:02;;;;;;;6.20;2.80;;;14.40;80.90;;;;;;5014531;28;20032;-80
2021/10/21 13:03:08;;;;;;;6.05;2.67;;;14.50;79.10;;;;;;5002939;28;20080;-81
2021/10/21 13:05:56;;;;;;;4.90;2.70;;;14.50;78.90;;;;;;5020295;28;20029;-80
2021/10/21 13:08:41;;;;;;;13.05;2.47;;;14.30;79.50;;;;;;4994912;28;20405;-79
2021/10/21 13:11:26;;;;;;;9.43;2.40;;;14.20;79.40;;;;;;4975862;28;20041;-76
2021/10/21 13:14:10;;;;;;;6.43;2.58;;;14.30;78.40;;;;;;4979727;28;20044;-75
2021/10/21 13:16:55;;;;;;;5.30;2.97;;;14.40;78.50;;;;;;5006873;28;20048;-79
2021/10/21 13:19:39;;;;;;;9.75;2.85;;;14.50;78.10;;;;;;4995181;28;20511;-76
2021/10/21 13:22:24;;;;;;;6.97;2.08;;;14.60;78.10;;;;;;5008422;28;20033;-77
2021/10/21 13:25:08;;;;;;;5.90;2.20;;;14.80;77.10;;;;;;5009159;28;20396;-76
2021/10/21 13:27:54;;;;;;;;;;;14.80;76.40;;;;;;4998090;28;20045;-80
2021/10/21 13:30:39;;;;;;;19.65;3.20;;;14.70;76.80;;;;;;4998032;28;19915;-80
2021/10/21 13:33:23;;;;;;;;;;;14.80;77.40;;;;;;5025368;28;20045;-79
2021/10/21 13:36:07;;;;;;;9.18;2.30;;;14.70;77.30;;;;;;5009718;28;19916;-80
2021/10/21 13:38:52;;;;;;;15.00;2.72;;;14.60;78.10;;;;;;4994558;28;20029;-79
2021/10/21 13:41:37;;;;;;;14.45;3.08;;;14.70;78.20;;;;;;5007997;28;20045;-79
2021/10/21 13:44:21;;;;;;;;;;;14.50;79.20;;;;;;4981062;28;20049;-79
2021/10/21 13:47:06;;;;;;;5.35;2.20;;;14.30;80.00;;;;;;5008005;28;20128;-79
2021/10/21 13:49:50;;;;;;;4.93;2.20;;;14.40;80.90;;;;;;5008752;28;20044;-79
2021/10/21 13:52:35;;;;;;;7.22;2.13;;;14.40;81.30;;;;;;4994532;28;20041;-79
2021/10/21 13:55:19;;;;;;;7.00;2.90;;;14.30;81.20;;;;;;4993263;28;20045;-79
2021/10/21 13:58:04;;;;;;;4.40;2.28;;;14.20;82.60;;;;;;5024483;28;20033;-79
2021/10/21 14:00:48;;;;;;;8.15;2.78;;;14.20;82.80;;;;;;5009583;28;20037;-79
2021/10/21 14:03:33;;;;;;;3.17;2.00;;;14.00;83.50;;;;;;4998801;28;20045;-79
2021/10/21 14:06:18;;;;;;;4.82;2.00;;;14.20;83.70;;;;;;5011598;28;20044;-76
2021/10/21 14:09:03;;;;;;;7.13;2.47;;;14.40;83.30;;;;;;4997059;28;20037;-78
2021/10/21 14:11:48;;;;;;;4.90;1.92;;;14.50;83.20;;;;;;4999149;28;20076;-77
2021/10/21 14:14:32;;;;;;;8.50;2.70;;;14.50;83.50;;;;;;5028974;28;20083;-77
2021/10/21 14:17:17;;;;;;;5.90;2.30;;;14.40;83.10;;;;;;4997502;28;20052;-78
2021/10/21 14:20:02;;;;;;;4.53;2.03;;;14.40;83.90;;;;;;4996677;28;20037;-77
2021/10/21 14:22:49;;;;;;;5.53;2.28;;;14.70;83.00;;;;;;5012347;28;20044;-76
2021/10/21 14:25:33;;;;;;;11.13;2.50;;;15.00;83.00;;;;;;5000040;28;20096;-78
2021/10/21 14:28:18;;;;;;;4.97;2.43;;;15.20;82.40;;;;;;5027044;28;20076;-81
2021/10/21 14:31:03;;;;;;;7.28;2.83;;;14.70;83.50;;;;;;4999079;28;20102;-80